Superior Township, Michigan
Current Conditions -  °F | °C
As of 2:53 AM on Sunday 26 Oct 2014 (Local Time) from KARB Reporting Station
Clear Clear  
Wind Chill: 50°   Ceiling: Unl
Heat Index: 50°   Visibility: 10mi
Dew Point: 28°   Wind: 8mph
Humidity: 43%   Direction: 310°NW
Pressure: 29.86"   Gusts: NA
Location:  42.3281°N, 83.7037°W
Report Text: KARB 260653Z AUTO 31007KT 10SM CLR 10/M02 A2986 RMK AO2 SLP110 T01001022
Loading
Personal Weather Stations






























Interactive Weather Map
Tropical Storm Tracking
New forecast layout! Learn more

10-Day Weather Forecast

Advertisements
Track Severe Weather on mobile